sensor_id;sensor_type;location;lat;lon;timestamp;pressure;altitude;pressure_sealevel;temperature;humidity
62025;BME280;47978;49.118;12.146;2023-03-15T00:03:09;96742.75;;;4.05;86.25
62025;BME280;47978;49.118;12.146;2023-03-15T00:07:10;96758.91;;;4.01;87.05
62025;BME280;47978;49.118;12.146;2023-03-15T00:11:12;96755.38;;;3.96;87.25
62025;BME280;47978;49.118;12.146;2023-03-15T00:15:14;96758.69;;;3.88;87.56
62025;BME280;47978;49.118;12.146;2023-03-15T00:19:16;96760.84;;;3.96;87.58
62025;BME280;47978;49.118;12.146;2023-03-15T00:23:18;96752.41;;;3.87;86.82
62025;BME280;47978;49.118;12.146;2023-03-15T00:27:19;96768.56;;;3.78;86.92
62025;BME280;47978;49.118;12.146;2023-03-15T00:31:22;96783.63;;;3.76;86.81
62025;BME280;47978;49.118;12.146;2023-03-15T00:35:25;96798.91;;;3.82;86.17
62025;BME280;47978;49.118;12.146;2023-03-15T00:39:26;96813.13;;;3.84;87.36
62025;BME280;47978;49.118;12.146;2023-03-15T00:43:28;96819.44;;;3.74;87.45
62025;BME280;47978;49.118;12.146;2023-03-15T00:47:29;96813.97;;;3.74;87.63
62025;BME280;47978;49.118;12.146;2023-03-15T00:51:32;96821.63;;;3.77;87.19
62025;BME280;47978;49.118;12.146;2023-03-15T00:55:34;96822.19;;;3.69;86.38
62025;BME280;47978;49.118;12.146;2023-03-15T00:59:35;96822.75;;;3.61;86.50
62025;BME280;47978;49.118;12.146;2023-03-15T01:03:37;96821.97;;;3.55;86.50
62025;BME280;47978;49.118;12.146;2023-03-15T01:07:40;96825.25;;;3.57;86.69
62025;BME280;47978;49.118;12.146;2023-03-15T01:11:41;96824.19;;;3.43;87.00
62025;BME280;47978;49.118;12.146;2023-03-15T01:15:44;96825.00;;;3.38;87.55
62025;BME280;47978;49.118;12.146;2023-03-15T01:19:45;96829.66;;;3.43;86.51
62025;BME280;47978;49.118;12.146;2023-03-15T01:23:48;96819.53;;;3.38;85.91
62025;BME280;47978;49.118;12.146;2023-03-15T01:27:49;96831.88;;;3.31;86.66
62025;BME280;47978;49.118;12.146;2023-03-15T01:31:51;96844.69;;;3.46;86.48
62025;BME280;47978;49.118;12.146;2023-03-15T01:35:56;96835.94;;;3.38;86.71
62025;BME280;47978;49.118;12.146;2023-03-15T01:39:59;96836.50;;;3.35;86.41
62025;BME280;47978;49.118;12.146;2023-03-15T01:44:01;96846.91;;;3.23;86.87
62025;BME280;47978;49.118;12.146;2023-03-15T01:48:02;96848.56;;;3.14;86.37
62025;BME280;47978;49.118;12.146;2023-03-15T01:52:05;96835.16;;;3.12;86.89
62025;BME280;47978;49.118;12.146;2023-03-15T01:56:08;96830.25;;;3.09;86.81
62025;BME280;47978;49.118;12.146;2023-03-15T02:00:11;96837.38;;;3.10;85.90
62025;BME280;47978;49.118;12.146;2023-03-15T02:04:14;96838.97;;;3.01;87.79
62025;BME280;47978;49.118;12.146;2023-03-15T02:08:17;96849.38;;;2.99;87.73
62025;BME280;47978;49.118;12.146;2023-03-15T02:12:20;96863.84;;;3.20;86.56
62025;BME280;47978;49.118;12.146;2023-03-15T02:16:22;96880.78;;;3.12;86.88
62025;BME280;47978;49.118;12.146;2023-03-15T02:20:27;96887.59;;;3.04;87.38
62025;BME280;47978;49.118;12.146;2023-03-15T02:24:32;96894.72;;;3.10;87.18
62025;BME280;47978;49.118;12.146;2023-03-15T02:28:40;96906.44;;;3.06;87.57
62025;BME280;47978;49.118;12.146;2023-03-15T02:32:42;96930.75;;;2.97;87.82
62025;BME280;47978;49.118;12.146;2023-03-15T02:36:44;96923.94;;;3.05;87.57
62025;BME280;47978;49.118;12.146;2023-03-15T02:40:45;96919.84;;;2.97;88.24
62025;BME280;47978;49.118;12.146;2023-03-15T02:44:48;96933.47;;;2.97;88.59
62025;BME280;47978;49.118;12.146;2023-03-15T02:48:50;96947.94;;;2.98;89.19
62025;BME280;47978;49.118;12.146;2023-03-15T02:52:52;96964.09;;;3.14;88.64
62025;BME280;47978;49.118;12.146;2023-03-15T02:56:54;96972.84;;;3.11;88.22
62025;BME280;47978;49.118;12.146;2023-03-15T03:00:57;96982.38;;;2.93;88.69
62025;BME280;47978;49.118;12.146;2023-03-15T03:04:58;96988.06;;;2.77;88.87
62025;BME280;47978;49.118;12.146;2023-03-15T03:08:59;97001.38;;;2.63;89.41
62025;BME280;47978;49.118;12.146;2023-03-15T03:13:01;97011.81;;;2.76;89.04
62025;BME280;47978;49.118;12.146;2023-03-15T03:17:04;97013.69;;;2.76;88.64
62025;BME280;47978;49.118;12.146;2023-03-15T03:21:05;97010.16;;;2.80;88.03
62025;BME280;47978;49.118;12.146;2023-03-15T03:25:07;97026.31;;;2.82;87.91
62025;BME280;47978;49.118;12.146;2023-03-15T03:29:09;97041.00;;;2.76;87.55
62025;BME280;47978;49.118;12.146;2023-03-15T03:33:12;97053.81;;;2.75;87.33
62025;BME280;47978;49.118;12.146;2023-03-15T03:37:13;97061.69;;;2.61;87.64
62025;BME280;47978;49.118;12.146;2023-03-15T03:41:15;97069.56;;;2.53;88.48
62025;BME280;47978;49.118;12.146;2023-03-15T03:45:16;97088.22;;;2.71;87.44
62025;BME280;47978;49.118;12.146;2023-03-15T03:49:19;97080.53;;;2.63;86.14
62025;BME280;47978;49.118;12.146;2023-03-15T03:53:20;97102.34;;;2.58;86.60
62025;BME280;47978;49.118;12.146;2023-03-15T03:57:22;97101.19;;;2.48;87.87
62025;BME280;47978;49.118;12.146;2023-03-15T04:01:23;97102.25;;;2.47;87.56
62025;BME280;47978;49.118;12.146;2023-03-15T04:05:26;97120.00;;;2.50;87.49
62025;BME280;47978;49.118;12.146;2023-03-15T04:09:27;97133.91;;;2.43;88.03
62025;BME280;47978;49.118;12.146;2023-03-15T04:13:29;97138.47;;;2.33;89.05
62025;BME280;47978;49.118;12.146;2023-03-15T04:17:30;97141.00;;;2.07;89.71
62025;BME280;47978;49.118;12.146;2023-03-15T04:21:33;97147.34;;;2.18;90.54
62025;BME280;47978;49.118;12.146;2023-03-15T04:25:34;97157.22;;;2.24;89.79
62025;BME280;47978;49.118;12.146;2023-03-15T04:29:36;97163.44;;;2.14;90.27
62025;BME280;47978;49.118;12.146;2023-03-15T04:33:37;97172.19;;;2.16;90.34
62025;BME280;47978;49.118;12.146;2023-03-15T04:37:40;97186.97;;;2.25;90.00
62025;BME280;47978;49.118;12.146;2023-03-15T04:41:41;97187.75;;;2.21;89.78
62025;BME280;47978;49.118;12.146;2023-03-15T04:45:43;97194.25;;;2.15;90.26
62025;BME280;47978;49.118;12.146;2023-03-15T04:49:44;97197.03;;;2.20;90.39
62025;BME280;47978;49.118;12.146;2023-03-15T04:53:47;97214.56;;;2.29;90.21
62025;BME280;47978;49.118;12.146;2023-03-15T04:57:48;97221.34;;;2.27;89.88
62025;BME280;47978;49.118;12.146;2023-03-15T05:01:49;97232.69;;;2.45;89.66
62025;BME280;47978;49.118;12.146;2023-03-15T05:05:51;97242.69;;;2.35;89.38
62025;BME280;47978;49.118;12.146;2023-03-15T05:09:54;97247.38;;;2.39;89.64
62025;BME280;47978;49.118;12.146;2023-03-15T05:13:55;97255.38;;;2.19;90.18
62025;BME280;47978;49.118;12.146;2023-03-15T05:17:56;97267.47;;;2.28;90.44
62025;BME280;47978;49.118;12.146;2023-03-15T05:21:58;97267.78;;;2.32;89.91
62025;BME280;47978;49.118;12.146;2023-03-15T05:26:00;97279.84;;;2.41;90.11
62025;BME280;47978;49.118;12.146;2023-03-15T05:30:02;97292.78;;;2.51;88.37
62025;BME280;47978;49.118;12.146;2023-03-15T05:34:04;97299.25;;;2.44;87.96
62025;BME280;47978;49.118;12.146;2023-03-15T05:38:06;97308.84;;;2.47;88.78
62025;BME280;47978;49.118;12.146;2023-03-15T05:42:09;97318.13;;;2.46;88.49
62025;BME280;47978;49.118;12.146;2023-03-15T05:46:10;97325.13;;;2.37;89.14
62025;BME280;47978;49.118;12.146;2023-03-15T05:50:11;97326.53;;;2.39;88.55
62025;BME280;47978;49.118;12.146;2023-03-15T05:54:13;97334.81;;;2.28;89.61
62025;BME280;47978;49.118;12.146;2023-03-15T05:58:15;97336.56;;;2.34;88.41
62025;BME280;47978;49.118;12.146;2023-03-15T06:02:17;97337.91;;;2.09;88.68
62025;BME280;47978;49.118;12.146;2023-03-15T06:06:18;97347.19;;;1.86;89.80
62025;BME280;47978;49.118;12.146;2023-03-15T06:10:20;97354.63;;;1.91;88.76
62025;BME280;47978;49.118;12.146;2023-03-15T06:14:23;97361.25;;;1.78;90.37
62025;BME280;47978;49.118;12.146;2023-03-15T06:18:25;97371.41;;;2.05;88.57
62025;BME280;47978;49.118;12.146;2023-03-15T06:22:26;97382.38;;;2.10;88.19
62025;BME280;47978;49.118;12.146;2023-03-15T06:26:28;97379.72;;;2.15;88.96
62025;BME280;47978;49.118;12.146;2023-03-15T06:30:30;97383.38;;;2.25;88.37
62025;BME280;47978;49.118;12.146;2023-03-15T06:34:32;97389.34;;;2.22;88.51
62025;BME280;47978;49.118;12.146;2023-03-15T06:38:33;97403.13;;;2.60;86.86
62025;BME280;47978;49.118;12.146;2023-03-15T06:42:34;97407.03;;;2.69;86.35
62025;BME280;47978;49.118;12.146;2023-03-15T06:46:37;97412.03;;;2.77;84.68
62025;BME280;47978;49.118;12.146;2023-03-15T06:50:39;97417.09;;;2.90;83.35
62025;BME280;47978;49.118;12.146;2023-03-15T06:54:47;97417.47;;;3.04;81.97
62025;BME280;47978;49.118;12.146;2023-03-15T06:58:49;97432.31;;;3.13;82.27
62025;BME280;47978;49.118;12.146;2023-03-15T07:02:51;97436.81;;;3.30;80.79
62025;BME280;47978;49.118;12.146;2023-03-15T07:06:53;97432.38;;;3.56;80.74
62025;BME280;47978;49.118;12.146;2023-03-15T07:10:54;97443.34;;;3.61;79.95
62025;BME280;47978;49.118;12.146;2023-03-15T07:14:56;97438.97;;;3.60;79.49
62025;BME280;47978;49.118;12.146;2023-03-15T07:18:58;97445.41;;;3.44;77.00
62025;BME280;47978;49.118;12.146;2023-03-15T07:23:00;97445.69;;;3.42;76.40
62025;BME280;47978;49.118;12.146;2023-03-15T07:27:02;97453.34;;;3.45;75.90
62025;BME280;47978;49.118;12.146;2023-03-15T07:31:04;97456.75;;;3.63;75.30
62025;BME280;47978;49.118;12.146;2023-03-15T07:35:07;97461.94;;;3.64;75.69
62025;BME280;47978;49.118;12.146;2023-03-15T07:39:11;97460.94;;;3.75;74.89
62025;BME280;47978;49.118;12.146;2023-03-15T07:43:12;97469.78;;;3.88;74.51
62025;BME280;47978;49.118;12.146;2023-03-15T07:47:14;97470.41;;;4.00;74.17
62025;BME280;47978;49.118;12.146;2023-03-15T07:51:16;97466.47;;;4.28;74.20
62025;BME280;47978;49.118;12.146;2023-03-15T07:55:18;97472.25;;;4.37;74.03
62025;BME280;47978;49.118;12.146;2023-03-15T07:59:19;97483.03;;;4.06;74.56
62025;BME280;47978;49.118;12.146;2023-03-15T08:03:20;97486.25;;;3.98;73.25
62025;BME280;47978;49.118;12.146;2023-03-15T08:07:23;97487.41;;;4.02;73.16
62025;BME280;47978;49.118;12.146;2023-03-15T08:11:25;97491.22;;;4.06;73.17
62025;BME280;47978;49.118;12.146;2023-03-15T08:15:26;97496.38;;;3.97;74.52
62025;BME280;47978;49.118;12.146;2023-03-15T08:19:27;97494.44;;;3.93;74.52
62025;BME280;47978;49.118;12.146;2023-03-15T08:23:30;97504.94;;;4.11;74.25
62025;BME280;47978;49.118;12.146;2023-03-15T08:27:31;97492.53;;;4.46;72.84
62025;BME280;47978;49.118;12.146;2023-03-15T08:31:33;97491.53;;;4.62;72.71
62025;BME280;47978;49.118;12.146;2023-03-15T08:35:34;97497.44;;;4.44;72.40
62025;BME280;47978;49.118;12.146;2023-03-15T08:39:37;97493.19;;;4.68;71.81
62025;BME280;47978;49.118;12.146;2023-03-15T08:43:39;97489.44;;;4.95;70.49
62025;BME280;47978;49.118;12.146;2023-03-15T08:47:40;97482.94;;;5.57;70.21
62025;BME280;47978;49.118;12.146;2023-03-15T08:51:42;97484.03;;;5.82;66.02
62025;BME280;47978;49.118;12.146;2023-03-15T08:55:45;97493.34;;;6.12;65.78
62025;BME280;47978;49.118;12.146;2023-03-15T08:59:47;97512.53;;;6.37;65.01
62025;BME280;47978;49.118;12.146;2023-03-15T09:03:49;97515.91;;;5.98;64.95
62025;BME280;47978;49.118;12.146;2023-03-15T09:07:50;97511.22;;;5.58;66.44
62025;BME280;47978;49.118;12.146;2023-03-15T09:11:53;97510.63;;;5.25;66.36
62025;BME280;47978;49.118;12.146;2023-03-15T09:15:55;97523.53;;;5.30;66.43
62025;BME280;47978;49.118;12.146;2023-03-15T09:19:56;97521.34;;;5.52;66.45
62025;BME280;47978;49.118;12.146;2023-03-15T09:23:58;97524.66;;;5.85;67.11
62025;BME280;47978;49.118;12.146;2023-03-15T09:28:00;97523.81;;;6.20;65.73
62025;BME280;47978;49.118;12.146;2023-03-15T09:32:02;97531.22;;;6.35;64.31
62025;BME280;47978;49.118;12.146;2023-03-15T09:36:03;97532.59;;;6.17;63.54
62025;BME280;47978;49.118;12.146;2023-03-15T09:40:06;97530.44;;;5.94;62.60
62025;BME280;47978;49.118;12.146;2023-03-15T09:44:11;97538.13;;;5.86;62.53
62025;BME280;47978;49.118;12.146;2023-03-15T09:48:15;97544.38;;;5.56;63.28
62025;BME280;47978;49.118;12.146;2023-03-15T09:52:31;97545.50;;;5.71;61.57
62025;BME280;47978;49.118;12.146;2023-03-15T09:56:34;97541.94;;;5.85;60.37
62025;BME280;47978;49.118;12.146;2023-03-15T10:00:39;97540.88;;;6.07;61.08
62025;BME280;47978;49.118;12.146;2023-03-15T10:04:41;97540.59;;;5.78;61.61
62025;BME280;47978;49.118;12.146;2023-03-15T10:08:43;97544.16;;;6.09;60.89
62025;BME280;47978;49.118;12.146;2023-03-15T10:12:48;97553.47;;;5.93;57.56
62025;BME280;47978;49.118;12.146;2023-03-15T10:16:52;97544.41;;;6.23;57.58
62025;BME280;47978;49.118;12.146;2023-03-15T10:20:55;97553.72;;;6.47;57.88
62025;BME280;47978;49.118;12.146;2023-03-15T10:25:00;97556.72;;;6.56;57.14
62025;BME280;47978;49.118;12.146;2023-03-15T10:29:07;97556.19;;;6.44;54.46
62025;BME280;47978;49.118;12.146;2023-03-15T10:33:14;97566.06;;;6.50;56.54
62025;BME280;47978;49.118;12.146;2023-03-15T10:37:16;97557.28;;;6.53;56.24
62025;BME280;47978;49.118;12.146;2023-03-15T10:41:27;97555.59;;;6.67;55.92
62025;BME280;47978;49.118;12.146;2023-03-15T10:45:29;97564.13;;;6.61;54.79
62025;BME280;47978;49.118;12.146;2023-03-15T10:49:35;97551.53;;;6.39;55.93
62025;BME280;47978;49.118;12.146;2023-03-15T10:53:37;97546.03;;;6.39;56.69
62025;BME280;47978;49.118;12.146;2023-03-15T10:57:51;97546.03;;;6.55;56.60
62025;BME280;47978;49.118;12.146;2023-03-15T11:01:53;97548.94;;;6.79;55.93
62025;BME280;47978;49.118;12.146;2023-03-15T11:06:18;97525.59;;;6.71;53.00
62025;BME280;47978;49.118;12.146;2023-03-15T11:10:21;97525.00;;;6.94;53.82
62025;BME280;47978;49.118;12.146;2023-03-15T11:14:22;97515.88;;;6.99;53.25
62025;BME280;47978;49.118;12.146;2023-03-15T11:18:25;97515.75;;;6.60;54.29
62025;BME280;47978;49.118;12.146;2023-03-15T11:22:28;97507.50;;;6.60;53.91
62025;BME280;47978;49.118;12.146;2023-03-15T11:26:30;97516.56;;;6.60;54.89
62025;BME280;47978;49.118;12.146;2023-03-15T11:30:33;97507.25;;;6.61;53.63
62025;BME280;47978;49.118;12.146;2023-03-15T11:34:36;97508.22;;;6.86;53.74
62025;BME280;47978;49.118;12.146;2023-03-15T11:38:40;97510.22;;;6.75;54.49
62025;BME280;47978;49.118;12.146;2023-03-15T11:42:43;97509.78;;;6.42;54.53
62025;BME280;47978;49.118;12.146;2023-03-15T11:46:48;97508.19;;;6.16;55.12
62025;BME280;47978;49.118;12.146;2023-03-15T11:50:51;97505.44;;;6.16;55.40
62025;BME280;47978;49.118;12.146;2023-03-15T11:54:55;97494.66;;;6.40;55.41
62025;BME280;47978;49.118;12.146;2023-03-15T11:59:05;97491.50;;;6.82;55.69
62025;BME280;47978;49.118;12.146;2023-03-15T12:03:22;97482.34;;;7.41;52.52
62025;BME280;47978;49.118;12.146;2023-03-15T12:07:35;97485.72;;;7.28;52.25
62025;BME280;47978;49.118;12.146;2023-03-15T12:11:39;97481.00;;;6.94;53.13
62025;BME280;47978;49.118;12.146;2023-03-15T12:15:45;97480.47;;;6.87;54.48
62025;BME280;47978;49.118;12.146;2023-03-15T12:19:46;97476.66;;;6.83;53.55
62025;BME280;47978;49.118;12.146;2023-03-15T12:23:55;97471.19;;;7.22;53.15
62025;BME280;47978;49.118;12.146;2023-03-15T12:27:58;97462.09;;;7.27;53.29
62025;BME280;47978;49.118;12.146;2023-03-15T12:32:04;97455.38;;;7.43;54.10
62025;BME280;47978;49.118;12.146;2023-03-15T12:36:08;97455.25;;;7.25;53.68
62025;BME280;47978;49.118;12.146;2023-03-15T12:44:37;97463.88;;;7.08;50.09
62025;BME280;47978;49.118;12.146;2023-03-15T12:48:39;97462.94;;;6.78;51.58
62025;BME280;47978;49.118;12.146;2023-03-15T12:53:00;97471.09;;;6.93;52.78
62025;BME280;47978;49.118;12.146;2023-03-15T12:57:02;97470.47;;;7.12;51.87
62025;BME280;47978;49.118;12.146;2023-03-15T13:01:06;97468.28;;;7.09;52.41
62025;BME280;47978;49.118;12.146;2023-03-15T13:05:22;97480.25;;;6.79;53.88
62025;BME280;47978;49.118;12.146;2023-03-15T13:13:45;97478.97;;;7.10;56.37
62025;BME280;47978;49.118;12.146;2023-03-15T13:17:53;97489.66;;;7.17;56.91
62025;BME280;47978;49.118;12.146;2023-03-15T13:22:02;97509.56;;;6.93;58.22
62025;BME280;47978;49.118;12.146;2023-03-15T13:26:11;97507.41;;;6.90;59.31
62025;BME280;47978;49.118;12.146;2023-03-15T13:30:34;97511.31;;;6.74;60.42
62025;BME280;47978;49.118;12.146;2023-03-15T13:34:38;97513.31;;;6.48;61.95
62025;BME280;47978;49.118;12.146;2023-03-15T13:38:40;97524.38;;;6.22;62.89
62025;BME280;47978;49.118;12.146;2023-03-15T13:42:42;97518.06;;;6.17;62.66
62025;BME280;47978;49.118;12.146;2023-03-15T13:46:44;97523.03;;;5.99;64.14
62025;BME280;47978;49.118;12.146;2023-03-15T13:50:48;97520.53;;;6.13;64.01
62025;BME280;47978;49.118;12.146;2023-03-15T13:54:50;97522.47;;;6.07;64.32
62025;BME280;47978;49.118;12.146;2023-03-15T13:58:53;97529.34;;;6.00;66.13
62025;BME280;47978;49.118;12.146;2023-03-15T14:02:57;97530.16;;;6.11;64.99
62025;BME280;47978;49.118;12.146;2023-03-15T14:07:03;97521.38;;;5.93;65.91
62025;BME280;47978;49.118;12.146;2023-03-15T14:11:09;97523.25;;;5.57;66.82
62025;BME280;47978;49.118;12.146;2023-03-15T14:15:13;97533.13;;;5.63;67.56
62025;BME280;47978;49.118;12.146;2023-03-15T14:19:17;97537.78;;;5.42;70.20
62025;BME280;47978;49.118;12.146;2023-03-15T14:23:22;97548.13;;;5.04;73.92
62025;BME280;47978;49.118;12.146;2023-03-15T14:27:25;97536.88;;;5.06;75.59
62025;BME280;47978;49.118;12.146;2023-03-15T14:31:30;97549.72;;;5.00;71.59
62025;BME280;47978;49.118;12.146;2023-03-15T14:35:39;97538.53;;;5.07;72.09
62025;BME280;47978;49.118;12.146;2023-03-15T14:39:43;97538.25;;;4.98;70.67
62025;BME280;47978;49.118;12.146;2023-03-15T14:43:44;97537.16;;;5.14;71.03
62025;BME280;47978;49.118;12.146;2023-03-15T14:47:48;97541.56;;;5.15;70.72
62025;BME280;47978;49.118;12.146;2023-03-15T14:51:58;97539.69;;;5.31;69.68
62025;BME280;47978;49.118;12.146;2023-03-15T14:56:01;97538.81;;;5.21;69.70
62025;BME280;47978;49.118;12.146;2023-03-15T15:00:03;97535.84;;;5.27;70.75
62025;BME280;47978;49.118;12.146;2023-03-15T15:04:05;97532.59;;;5.35;70.31
62025;BME280;47978;49.118;12.146;2023-03-15T15:08:08;97534.22;;;5.41;69.58
62025;BME280;47978;49.118;12.146;2023-03-15T15:12:12;97528.47;;;5.43;69.13
62025;BME280;47978;49.118;12.146;2023-03-15T15:16:13;97541.34;;;5.43;69.37
62025;BME280;47978;49.118;12.146;2023-03-15T15:20:15;97554.75;;;5.29;69.50
62025;BME280;47978;49.118;12.146;2023-03-15T15:24:17;97556.34;;;5.14;69.22
62025;BME280;47978;49.118;12.146;2023-03-15T15:28:21;97557.41;;;5.03;70.09
62025;BME280;47978;49.118;12.146;2023-03-15T15:32:35;97563.16;;;4.96;70.17
62025;BME280;47978;49.118;12.146;2023-03-15T15:36:38;97563.97;;;4.97;70.65
62025;BME280;47978;49.118;12.146;2023-03-15T15:40:39;97558.81;;;5.11;70.33
62025;BME280;47978;49.118;12.146;2023-03-15T15:44:42;97564.03;;;5.17;70.41
62025;BME280;47978;49.118;12.146;2023-03-15T15:48:44;97571.72;;;5.10;69.88
62025;BME280;47978;49.118;12.146;2023-03-15T15:52:46;97560.38;;;4.91;69.87
62025;BME280;47978;49.118;12.146;2023-03-15T15:56:50;97564.56;;;5.04;70.27
62025;BME280;47978;49.118;12.146;2023-03-15T16:00:53;97567.25;;;4.94;68.72
62025;BME280;47978;49.118;12.146;2023-03-15T16:04:54;97566.19;;;5.00;69.29
62025;BME280;47978;49.118;12.146;2023-03-15T16:08:56;97574.94;;;4.97;69.42
62025;BME280;47978;49.118;12.146;2023-03-15T16:12:57;97581.19;;;4.82;69.03
62025;BME280;47978;49.118;12.146;2023-03-15T16:17:00;97580.50;;;4.60;69.52
62025;BME280;47978;49.118;12.146;2023-03-15T16:21:02;97590.63;;;4.54;69.70
62025;BME280;47978;49.118;12.146;2023-03-15T16:25:03;97596.66;;;4.56;70.56
62025;BME280;47978;49.118;12.146;2023-03-15T16:29:10;97604.84;;;4.51;70.47
62025;BME280;47978;49.118;12.146;2023-03-15T16:33:15;97602.88;;;4.46;71.20
62025;BME280;47978;49.118;12.146;2023-03-15T16:37:18;97614.94;;;4.45;71.56
62025;BME280;47978;49.118;12.146;2023-03-15T16:41:21;97610.47;;;4.34;71.69
62025;BME280;47978;49.118;12.146;2023-03-15T16:45:23;97622.72;;;4.21;72.08
62025;BME280;47978;49.118;12.146;2023-03-15T16:49:26;97636.41;;;4.26;72.50
62025;BME280;47978;49.118;12.146;2023-03-15T16:53:27;97639.84;;;4.12;72.83
62025;BME280;47978;49.118;12.146;2023-03-15T16:57:29;97640.25;;;4.25;72.60
62025;BME280;47978;49.118;12.146;2023-03-15T17:01:31;97650.63;;;4.23;72.35
62025;BME280;47978;49.118;12.146;2023-03-15T17:05:33;97652.53;;;4.23;72.60
62025;BME280;47978;49.118;12.146;2023-03-15T17:09:35;97665.81;;;4.09;72.55
62025;BME280;47978;49.118;12.146;2023-03-15T17:13:36;97675.91;;;4.03;72.77
62025;BME280;47978;49.118;12.146;2023-03-15T17:17:40;97676.41;;;4.00;72.39
62025;BME280;47978;49.118;12.146;2023-03-15T17:21:42;97682.56;;;3.86;73.10
62025;BME280;47978;49.118;12.146;2023-03-15T17:25:44;97683.34;;;3.81;73.72
62025;BME280;47978;49.118;12.146;2023-03-15T17:29:45;97694.34;;;3.86;73.82
62025;BME280;47978;49.118;12.146;2023-03-15T17:33:46;97697.69;;;3.93;73.38
62025;BME280;47978;49.118;12.146;2023-03-15T17:37:49;97702.75;;;3.79;73.33
62025;BME280;47978;49.118;12.146;2023-03-15T17:41:51;97702.09;;;3.67;73.39
62025;BME280;47978;49.118;12.146;2023-03-15T17:45:52;97712.75;;;3.69;74.06
62025;BME280;47978;49.118;12.146;2023-03-15T17:49:54;97724.84;;;3.29;75.54
62025;BME280;47978;49.118;12.146;2023-03-15T17:53:57;97724.81;;;3.07;76.58
62025;BME280;47978;49.118;12.146;2023-03-15T17:57:58;97735.31;;;3.15;77.26
62025;BME280;47978;49.118;12.146;2023-03-15T18:02:00;97731.78;;;2.98;76.79
62025;BME280;47978;49.118;12.146;2023-03-15T18:06:01;97728.09;;;2.70;77.79
62025;BME280;47978;49.118;12.146;2023-03-15T18:10:04;97734.88;;;2.67;77.92
62025;BME280;47978;49.118;12.146;2023-03-15T18:14:08;97738.69;;;2.50;78.57
62025;BME280;47978;49.118;12.146;2023-03-15T18:18:10;97757.16;;;2.42;78.63
62025;BME280;47978;49.118;12.146;2023-03-15T18:22:13;97751.78;;;2.31;78.70
62025;BME280;47978;49.118;12.146;2023-03-15T18:26:17;97752.66;;;2.19;79.41
62025;BME280;47978;49.118;12.146;2023-03-15T18:30:19;97760.88;;;2.08;79.87
62025;BME280;47978;49.118;12.146;2023-03-15T18:34:21;97760.00;;;2.19;79.82
62025;BME280;47978;49.118;12.146;2023-03-15T18:38:23;97761.34;;;2.16;79.86
62025;BME280;47978;49.118;12.146;2023-03-15T18:42:25;97762.72;;;2.19;79.92
62025;BME280;47978;49.118;12.146;2023-03-15T18:46:27;97775.16;;;2.27;80.37
62025;BME280;47978;49.118;12.146;2023-03-15T18:50:28;97771.28;;;2.22;80.86
62025;BME280;47978;49.118;12.146;2023-03-15T18:54:30;97777.47;;;2.35;81.17
62025;BME280;47978;49.118;12.146;2023-03-15T18:58:33;97785.44;;;2.36;80.07
62025;BME280;47978;49.118;12.146;2023-03-15T19:02:34;97793.53;;;2.31;81.32
62025;BME280;47978;49.118;12.146;2023-03-15T19:06:36;97795.94;;;2.16;83.53
62025;BME280;47978;49.118;12.146;2023-03-15T19:10:37;97799.56;;;2.05;84.60
62025;BME280;47978;49.118;12.146;2023-03-15T19:14:40;97805.13;;;2.10;85.54
62025;BME280;47978;49.118;12.146;2023-03-15T19:18:41;97800.84;;;2.14;85.67
62025;BME280;47978;49.118;12.146;2023-03-15T19:22:42;97801.28;;;2.22;84.27
62025;BME280;47978;49.118;12.146;2023-03-15T19:26:44;97810.88;;;2.25;84.88
62025;BME280;47978;49.118;12.146;2023-03-15T19:30:47;97821.88;;;2.30;84.92
62025;BME280;47978;49.118;12.146;2023-03-15T19:34:48;97820.44;;;2.11;85.46
62025;BME280;47978;49.118;12.146;2023-03-15T19:38:50;97823.63;;;2.08;85.01
62025;BME280;47978;49.118;12.146;2023-03-15T19:42:51;97807.91;;;1.98;85.39
62025;BME280;47978;49.118;12.146;2023-03-15T19:46:54;97800.66;;;2.03;84.71
62025;BME280;47978;49.118;12.146;2023-03-15T19:50:55;97801.34;;;2.11;84.49
62025;BME280;47978;49.118;12.146;2023-03-15T19:54:57;97802.28;;;2.05;84.29
62025;BME280;47978;49.118;12.146;2023-03-15T19:58:58;97808.50;;;2.00;84.38
62025;BME280;47978;49.118;12.146;2023-03-15T20:03:01;97819.44;;;1.76;84.71
62025;BME280;47978;49.118;12.146;2023-03-15T20:07:03;97818.91;;;1.63;85.46
62025;BME280;47978;49.118;12.146;2023-03-15T20:11:04;97820.97;;;1.32;85.95
62025;BME280;47978;49.118;12.146;2023-03-15T20:15:07;97828.56;;;1.30;86.10
62025;BME280;47978;49.118;12.146;2023-03-15T20:19:10;97834.59;;;1.32;85.32
62025;BME280;47978;49.118;12.146;2023-03-15T20:23:11;97842.53;;;0.98;86.85
62025;BME280;47978;49.118;12.146;2023-03-15T20:27:12;97837.44;;;0.78;87.30
62025;BME280;47978;49.118;12.146;2023-03-15T20:31:14;97841.22;;;0.65;87.64
62025;BME280;47978;49.118;12.146;2023-03-15T20:35:18;97849.00;;;0.62;87.39
62025;BME280;47978;49.118;12.146;2023-03-15T20:39:19;97860.69;;;0.62;86.98
62025;BME280;47978;49.118;12.146;2023-03-15T20:43:21;97867.47;;;0.60;86.78
62025;BME280;47978;49.118;12.146;2023-03-15T20:47:22;97865.88;;;0.40;87.19
62025;BME280;47978;49.118;12.146;2023-03-15T20:51:25;97871.63;;;0.32;87.28
62025;BME280;47978;49.118;12.146;2023-03-15T20:55:26;97877.75;;;0.28;87.09
62025;BME280;47978;49.118;12.146;2023-03-15T20:59:28;97874.41;;;0.26;86.80
62025;BME280;47978;49.118;12.146;2023-03-15T21:03:29;97875.91;;;0.40;86.49
62025;BME280;47978;49.118;12.146;2023-03-15T21:07:32;97887.06;;;0.20;86.79
62025;BME280;47978;49.118;12.146;2023-03-15T21:11:33;97882.94;;;-0.01;87.88
62025;BME280;47978;49.118;12.146;2023-03-15T21:15:35;97885.81;;;0.04;87.79
62025;BME280;47978;49.118;12.146;2023-03-15T21:19:36;97891.72;;;0.01;87.20
62025;BME280;47978;49.118;12.146;2023-03-15T21:23:39;97898.97;;;-0.11;87.66
62025;BME280;47978;49.118;12.146;2023-03-15T21:27:40;97897.28;;;-0.12;87.46
62025;BME280;47978;49.118;12.146;2023-03-15T21:31:42;97894.28;;;-0.04;86.75
62025;BME280;47978;49.118;12.146;2023-03-15T21:35:43;97897.38;;;-0.19;88.11